Time;durP1;ratioP1;P1;durP2;ratioP2;P2;SDS_P1;SDS_P2;PMS_P1;PMS_P2;Temp;Humidity;BMP_temperature;BMP_pressure;BME280_temperature;BME280_humidity;BME280_pressure;Samples;Min_cycle;Max_cycle;Signal;HPM_P1;HPM_P2
2023/07/09 00:03:24;;;;;;;5.63;3.45;;;;;;;-145.68;49.87;73619.72;10532378;28;20197;-74
2023/07/09 00:08:28;;;;;;;4.25;3.10;;;;;;;-145.68;50.08;73635.72;10533491;28;20230;-74
2023/07/09 00:13:29;;;;;;;5.22;3.45;;;;;;;-145.68;50.26;73633.72;10515356;28;20191;-74
2023/07/09 00:18:29;;;;;;;5.55;3.65;;;;;;;-145.68;50.35;73635.72;10539327;28;20187;-74
2023/07/09 00:23:29;;;;;;;5.75;3.70;;;;;;;-145.68;50.31;73647.72;10541088;28;20316;-74
2023/07/09 00:28:30;;;;;;;4.47;3.30;;;;;;;-145.68;50.45;73651.72;10541457;28;20218;-74
2023/07/09 00:33:32;;;;;;;6.18;3.40;;;;;;;-145.68;50.72;73653.69;10540679;28;20279;-74
2023/07/09 00:38:38;;;;;;;8.05;4.22;;;;;;;-145.68;50.77;73655.69;10522488;28;20209;-74
2023/07/09 00:43:39;;;;;;;7.00;3.65;;;;;;;-145.68;50.56;73671.69;10540600;28;20194;-74
2023/07/09 00:48:43;;;;;;;6.25;3.20;;;;;;;-145.68;50.48;73651.72;10521701;28;20206;-75
2023/07/09 00:53:45;;;;;;;6.93;3.30;;;;;;;-145.68;50.25;73649.72;10522390;28;20210;-74
2023/07/09 00:58:47;;;;;;;3.80;3.03;;;;;;;-145.68;49.65;73639.72;10504187;28;20548;-75
2023/07/09 01:03:59;;;;;;;4.25;3.22;;;;;;;-145.68;49.91;73659.69;10520925;28;20523;-75
2023/07/09 01:09:00;;;;;;;6.90;3.88;;;;;;;-145.68;50.48;73685.69;10505157;28;20310;-75
2023/07/09 01:14:02;;;;;;;6.28;3.55;;;;;;;-145.68;50.78;73693.69;10538540;28;20222;-74
2023/07/09 01:19:04;;;;;;;7.88;3.83;;;;;;;-145.68;51.08;73711.66;10520793;28;20183;-75
2023/07/09 01:24:26;;;;;;;5.30;3.65;;;;;;;-145.68;51.96;73727.66;10521179;28;20243;-74
2023/07/09 01:29:31;;;;;;;6.65;3.30;;;;;;;-145.68;52.12;73739.66;10537666;28;20210;-74
2023/07/09 01:34:32;;;;;;;4.20;3.40;;;;;;;-145.68;52.22;73751.66;10520238;28;20238;-74
2023/07/09 01:39:33;;;;;;;3.53;3.17;;;;;;;-145.68;52.04;73735.66;10538263;28;20286;-74
2023/07/09 01:44:35;;;;;;;4.15;3.55;;;;;;;-145.68;52.33;73743.66;10538163;28;20216;-74
2023/07/09 01:49:36;;;;;;;5.50;2.97;;;;;;;-145.68;52.08;73751.66;10537822;28;20309;-75
2023/07/09 01:54:37;;;;;;;4.70;3.55;;;;;;;-145.68;52.14;73747.66;10519849;28;20271;-75
2023/07/09 01:59:40;;;;;;;10.43;3.80;;;;;;;-145.68;51.97;73753.66;10537001;28;20236;-75
2023/07/09 02:04:42;;;;;;;4.30;3.30;;;;;;;-145.68;51.78;73735.66;10537404;28;20186;-75
2023/07/09 02:09:43;;;;;;;6.78;3.55;;;;;;;-145.68;52.07;73735.66;10518970;28;20222;-75
2023/07/09 02:14:45;;;;;;;7.43;3.70;;;;;;;-145.68;52.31;73741.66;10536593;28;20210;-76
2023/07/09 02:19:45;;;;;;;7.40;3.30;;;;;;;-145.68;51.82;73727.66;10501737;28;20206;-75
2023/07/09 02:24:46;;;;;;;5.88;3.75;;;;;;;-145.68;52.30;73741.66;10518772;28;20285;-75
2023/07/09 02:29:46;;;;;;;7.93;3.60;;;;;;;-145.68;52.39;73739.66;10535949;28;20226;-75
2023/07/09 02:34:52;;;;;;;5.43;3.58;;;;;;;-145.68;52.55;73749.66;10536445;28;20235;-75
2023/07/09 02:39:53;;;;;;;3.80;2.80;;;;;;;-145.68;52.57;73751.66;10535494;28;20259;-75
2023/07/09 02:44:54;;;;;;;5.45;3.70;;;;;;;-145.68;52.72;73755.66;10535692;28;20189;-75
2023/07/09 02:49:57;;;;;;;5.47;4.03;;;;;;;-145.68;52.96;73765.66;10516183;28;20648;-75
2023/07/09 02:54:57;;;;;;;7.68;3.85;;;;;;;-145.68;52.71;73751.66;10534738;28;20298;-75
2023/07/09 02:59:58;;;;;;;5.43;3.40;;;;;;;-145.68;52.85;73759.66;10515742;28;20275;-74
2023/07/09 03:04:58;;;;;;;5.38;3.25;;;;;;;-145.68;52.73;73753.66;10539418;28;20242;-75
2023/07/09 03:09:59;;;;;;;11.82;3.60;;;;;;;-145.68;52.86;73751.66;10573065;28;20221;-75
2023/07/09 03:14:59;;;;;;;5.28;3.63;;;;;;;-145.68;53.26;73767.66;10554768;28;20212;-75
2023/07/09 03:20:00;;;;;;;6.05;3.30;;;;;;;-145.68;53.38;73765.66;10554598;28;20181;-75
2023/07/09 03:25:00;;;;;;;5.53;3.50;;;;;;;-145.68;53.09;73761.66;10573073;28;20196;-74
2023/07/09 03:30:00;;;;;;;5.38;3.40;;;;;;;-145.68;52.73;73741.66;10554189;28;20217;-74
2023/07/09 03:35:01;;;;;;;4.88;3.58;;;;;;;-145.68;52.38;73727.66;10572467;28;20735;-74
2023/07/09 03:40:04;;;;;;;4.60;3.40;;;;;;;-145.68;51.96;73711.66;10572257;28;20657;-74
2023/07/09 03:45:04;;;;;;;6.28;3.20;;;;;;;-145.68;52.20;73719.66;10571960;28;20178;-75
2023/07/09 03:50:08;;;;;;;8.45;3.63;;;;;;;-145.68;52.37;73711.66;10573026;28;20567;-74
2023/07/09 03:55:08;;;;;;;5.43;2.95;;;;;;;-145.68;52.51;73723.66;10562393;28;20342;-74
2023/07/09 04:00:12;;;;;;;6.55;3.90;;;;;;;-145.68;52.16;73699.69;10580254;28;20178;-74
2023/07/09 04:05:18;;;;;;;4.50;3.30;;;;;;;-145.68;52.12;73681.69;10584390;28;20189;-74
2023/07/09 04:10:19;;;;;;;4.40;3.30;;;;;;;-145.68;51.70;73655.69;10583627;28;20244;-75
2023/07/09 04:15:20;;;;;;;9.75;3.58;;;;;;;-145.68;51.29;73633.72;10584487;28;20339;-75
2023/07/09 04:20:20;;;;;;;3.88;3.08;;;;;;;-145.68;51.21;73619.72;10583319;28;20645;-74
2023/07/09 04:25:20;;;;;;;4.50;3.17;;;;;;;-145.68;51.04;73589.75;10583960;28;20189;-74
2023/07/09 04:30:21;;;;;;;4.90;3.20;;;;;;;-145.68;50.48;73561.75;10583127;28;20225;-75
2023/07/09 04:35:21;;;;;;;5.25;3.20;;;;;;;-145.68;50.36;73549.75;10583244;28;20237;-75
2023/07/09 04:40:21;;;;;;;4.68;3.17;;;;;;;-145.68;50.26;73535.78;10582781;28;20206;-75
2023/07/09 04:45:22;;;;;;;5.20;3.20;;;;;;;-145.68;49.93;73497.78;10582673;28;20272;-75
2023/07/09 04:50:22;;;;;;;4.57;3.47;;;;;;;-145.68;49.53;73473.81;10582798;28;20218;-75
2023/07/09 04:55:22;;;;;;;5.93;3.55;;;;;;;-145.68;49.69;73443.84;10582175;28;20273;-75
2023/07/09 05:00:23;;;;;;;7.68;3.47;;;;;;;-145.68;49.29;73401.84;10582144;28;20704;-74
2023/07/09 05:05:23;;;;;;;4.85;3.28;;;;;;;-145.68;49.03;73369.88;10581921;28;20645;-75
2023/07/09 05:10:24;;;;;;;4.88;3.58;;;;;;;-145.68;49.13;73347.88;10581588;28;20278;-75
2023/07/09 05:15:24;;;;;;;4.18;3.05;;;;;;;-145.68;48.80;73309.91;10581856;28;20182;-75
2023/07/09 05:20:24;;;;;;;5.00;3.63;;;;;;;-145.68;48.09;73275.94;10581049;28;20196;-75
2023/07/09 05:25:25;;;;;;;4.68;3.35;;;;;;;-145.68;47.68;73215.97;10581408;28;20189;-75
2023/07/09 05:30:26;;;;;;;3.97;3.22;;;;;;;-145.68;47.71;73180.00;10580746;28;20585;-76
2023/07/09 05:35:26;;;;;;;5.07;2.92;;;;;;;-145.68;46.76;73132.03;10581093;28;20229;-77
2023/07/09 05:40:27;;;;;;;6.30;3.17;;;;;;;-145.68;46.87;73100.06;10542774;28;20211;-76
2023/07/09 05:45:28;;;;;;;4.53;3.30;;;;;;;-145.68;46.81;73084.06;10520226;28;20201;-75
2023/07/09 05:50:28;;;;;;;4.32;3.55;;;;;;;-145.68;47.00;73068.06;10535537;28;20218;-75
2023/07/09 05:55:28;;;;;;;4.13;3.20;;;;;;;-145.68;46.92;73040.09;10579993;28;20186;-76
2023/07/09 06:00:29;;;;;;;4.20;3.17;;;;;;;-145.68;45.76;73004.13;10565916;28;20827;-75
2023/07/09 06:05:29;;;;;;;4.55;2.95;;;;;;;-145.68;46.13;72968.16;10537078;28;20654;-75
2023/07/09 06:10:30;;;;;;;3.50;3.08;;;;;;;-145.68;45.81;72894.22;10546777;28;20213;-75
2023/07/09 06:15:30;;;;;;;6.43;3.15;;;;;;;-145.68;44.32;72824.25;10574492;28;20198;-75
2023/07/09 06:20:31;;;;;;;11.52;3.53;;;;;;;-145.68;44.19;72776.28;10578206;28;20672;-75
2023/07/09 06:25:31;;;;;;;3.92;3.17;;;;;;;-145.68;42.61;72692.38;10578758;28;20937;-75
2023/07/09 06:30:31;;;;;;;3.92;3.20;;;;;;;-145.68;40.75;72600.44;10573841;28;20633;-75
2023/07/09 06:35:32;;;;;;;5.32;3.13;;;;;;;-145.68;39.74;72486.53;10503602;28;20251;-76
2023/07/09 06:40:32;;;;;;;4.68;3.05;;;;;;;-145.68;37.84;72292.72;10476456;28;20207;-75
2023/07/09 06:45:33;;;;;;;5.53;3.40;;;;;;;-145.68;35.51;72102.88;10494353;28;20191;-76
2023/07/09 06:50:34;;;;;;;6.43;3.00;;;;;;;-145.68;35.65;72024.97;10499587;28;20473;-74
2023/07/09 06:55:34;;;;;;;3.15;2.85;;;;;;;-145.68;34.18;71853.13;10535624;28;20193;-74
2023/07/09 07:00:36;;;;;;;2.80;2.50;;;;;;;-145.68;32.19;71727.25;10505633;28;20193;-74
2023/07/09 07:05:37;;;;;;;7.68;3.00;;;;;;;-145.68;30.35;71513.50;10472547;28;20195;-74
2023/07/09 07:10:37;;;;;;;8.25;2.75;;;;;;;-145.68;29.72;71527.47;10520851;28;20217;-74
2023/07/09 07:15:38;;;;;;;4.57;2.90;;;;;;;-145.68;28.30;71485.53;10514142;28;20197;-74
2023/07/09 07:20:38;;;;;;;6.88;3.38;;;;;;;-145.68;28.76;71625.38;10514819;28;20194;-74
2023/07/09 07:25:38;;;;;;;5.30;3.10;;;;;;;-145.68;28.80;71705.28;10532021;28;20190;-74
2023/07/09 07:30:39;;;;;;;5.37;3.30;;;;;;;-145.68;26.39;71489.50;10532943;28;20475;-74
2023/07/09 07:35:39;;;;;;;4.20;3.80;;;;;;;-145.68;25.92;71419.59;10572951;28;20471;-74
2023/07/09 07:40:44;;;;;;;5.05;3.72;;;;;;;-145.68;26.31;71413.59;10574325;28;20201;-74
2023/07/09 07:45:44;;;;;;;5.22;3.22;;;;;;;-145.68;26.49;71501.50;10575089;28;20257;-74
2023/07/09 07:50:47;;;;;;;3.50;2.60;;;;;;;-145.68;25.10;71269.75;10573280;28;20300;-74
2023/07/09 07:55:48;;;;;;;6.75;3.40;;;;;;;-145.68;25.59;71361.66;10575742;28;20489;-73
2023/07/09 08:00:48;;;;;;;3.27;2.97;;;;;;;-145.68;24.84;71307.72;10575463;28;20557;-73
2023/07/09 08:05:50;;;;;;;3.70;2.93;;;;;;;-145.68;24.38;71321.69;10575194;28;20802;-74
2023/07/09 08:10:51;;;;;;;4.05;3.10;;;;;;;-145.68;26.15;71433.56;10569281;28;20483;-74
2023/07/09 08:15:51;;;;;;;3.72;2.92;;;;;;;-145.68;26.03;71453.56;10569444;28;20189;-74
2023/07/09 08:20:51;;;;;;;5.33;3.10;;;;;;;-145.68;26.59;71481.53;10570058;28;20653;-74
2023/07/09 08:25:53;;;;;;;4.23;3.27;;;;;;;-145.68;25.72;71409.59;10573689;28;20957;-74
2023/07/09 08:30:54;;;;;;;6.00;3.60;;;;;;;-145.68;24.82;71329.69;10572787;28;20462;-74
2023/07/09 08:35:55;;;;;;;4.72;3.10;;;;;;;-145.68;26.01;71445.56;10574240;28;20657;-74
2023/07/09 08:41:01;;;;;;;3.90;3.53;;;;;;;-145.68;25.05;71343.69;10562745;28;20205;-74
2023/07/09 08:46:07;;;;;;;3.75;2.90;;;;;;;-145.68;26.46;71529.47;10581351;28;20427;-74
2023/07/09 08:51:13;;;;;;;4.65;3.33;;;;;;;-145.68;26.62;71531.47;10580935;28;20221;-74
2023/07/09 08:56:15;;;;;;;4.55;3.80;;;;;;;-145.68;24.89;71409.59;10581291;28;20224;-74
2023/07/09 09:01:21;;;;;;;5.85;3.38;;;;;;;-145.68;25.75;71381.63;10580206;28;20194;-74
2023/07/09 09:06:26;;;;;;;5.40;3.60;;;;;;;-145.68;25.23;71377.63;10545582;28;20268;-76
2023/07/09 09:11:48;;;;;;;5.28;3.55;;;;;;;-145.68;24.83;71221.81;10579821;28;20257;-76
2023/07/09 09:16:49;;;;;;;5.13;3.70;;;;;;;-145.68;25.82;71363.66;10560923;28;20212;-76
2023/07/09 09:21:56;;;;;;;6.43;3.50;;;;;;;-145.68;25.35;71343.69;10562010;28;20197;-76
2023/07/09 09:26:58;;;;;;;6.38;3.40;;;;;;;-145.68;25.98;71571.44;10561274;28;20542;-76
2023/07/09 09:32:00;;;;;;;5.70;3.42;;;;;;;-145.68;26.64;71315.72;10579360;28;20229;-76
2023/07/09 09:37:00;;;;;;;6.88;3.40;;;;;;;-145.68;24.98;71231.81;10560604;28;20668;-77
2023/07/09 09:42:00;;;;;;;4.30;3.53;;;;;;;-145.68;24.61;71087.97;10579306;28;20189;-77
2023/07/09 09:47:01;;;;;;;3.40;3.10;;;;;;;-145.68;25.38;71221.81;10577832;28;20565;-74
2023/07/09 09:52:02;;;;;;;6.37;3.37;;;;;;;-145.68;25.02;71161.88;10576080;28;20528;-76
2023/07/09 09:57:02;;;;;;;6.85;3.78;;;;;;;-145.68;24.31;71155.91;10578251;28;20577;-74
2023/07/09 10:02:23;;;;;;;3.28;2.95;;;;;;;-145.68;24.72;71169.88;10578134;28;20280;-75
2023/07/09 10:07:32;;;;;;;3.65;3.30;;;;;;;-145.68;24.00;71078.00;10577731;28;20217;-75
2023/07/09 10:12:52;;;;;;;4.20;3.42;;;;;;;-145.68;23.09;70994.09;10559783;28;20724;-75
2023/07/09 10:18:03;;;;;;;4.32;2.92;;;;;;;-145.68;22.89;70888.22;10558928;28;20193;-75
2023/07/09 10:23:27;;;;;;;5.18;3.00;;;;;;;-145.68;22.74;70978.13;10577865;28;20189;-75
2023/07/09 10:28:56;;;;;;;4.53;3.38;;;;;;;-145.68;24.30;71437.56;10541888;28;20225;-75
2023/07/09 10:34:18;;;;;;;6.55;3.63;;;;;;;-145.68;25.68;71691.28;10576977;28;20320;-76
2023/07/09 10:39:26;;;;;;;6.60;3.40;;;;;;;-145.68;26.44;71749.22;10558679;28;20332;-76
2023/07/09 10:44:36;;;;;;;6.85;4.10;;;;;;;-145.68;25.29;71605.38;10558231;28;20626;-75
2023/07/09 10:49:40;;;;;;;6.93;3.25;;;;;;;-145.68;24.83;71491.50;10557714;28;20222;-75
2023/07/09 10:55:00;;;;;;;5.57;3.67;;;;;;;-145.68;25.69;71585.41;10576541;28;20209;-75
2023/07/09 11:00:01;;;;;;;7.07;3.70;;;;;;;-145.68;25.87;71677.31;10575138;28;20211;-75
2023/07/09 11:05:03;;;;;;;6.90;3.63;;;;;;;-145.68;25.63;71543.44;10575941;28;20241;-75
2023/07/09 11:10:20;;;;;;;5.43;3.50;;;;;;;-145.68;24.87;71493.50;10575210;28;20285;-76
2023/07/09 11:15:27;;;;;;;5.13;3.60;;;;;;;-145.68;25.10;71555.44;10557483;28;20178;-76
2023/07/09 11:20:34;;;;;;;6.22;3.60;;;;;;;-145.68;25.48;71345.69;10556438;28;20190;-76
2023/07/09 11:25:43;;;;;;;5.57;3.25;;;;;;;-145.68;25.49;71417.59;10575069;28;20700;-76
2023/07/09 11:30:54;;;;;;;6.30;3.50;;;;;;;-145.68;25.02;71467.53;10574616;28;20232;-75
2023/07/09 11:36:08;;;;;;;7.32;3.28;;;;;;;-145.68;24.73;71375.66;10556821;28;20220;-75
2023/07/09 11:41:30;;;;;;;7.93;3.75;;;;;;;-145.68;25.19;71487.50;10574496;28;20204;-75
2023/07/09 11:46:32;;;;;;;4.50;3.30;;;;;;;-145.68;25.29;71427.59;10556338;28;20653;-75
2023/07/09 11:51:44;;;;;;;4.72;3.53;;;;;;;-145.68;25.47;71505.50;10556628;28;20205;-75
2023/07/09 11:56:58;;;;;;;4.55;3.15;;;;;;;-145.68;24.35;71193.84;10555494;28;20273;-75
2023/07/09 12:02:00;;;;;;;5.22;3.00;;;;;;;-145.68;23.61;70976.13;10556091;28;20193;-76
2023/07/09 12:07:02;;;;;;;6.65;3.70;;;;;;;-145.68;25.00;71339.69;10539441;28;20259;-75
2023/07/09 12:12:03;;;;;;;6.63;3.40;;;;;;;-145.68;23.93;71177.88;10576390;28;20193;-75
2023/07/09 12:17:08;;;;;;;6.03;3.42;;;;;;;-145.68;25.11;71645.34;10564239;28;20185;-75
2023/07/09 12:22:15;;;;;;;4.10;3.70;;;;;;;-145.68;25.90;71457.56;10563823;28;20620;-75
2023/07/09 12:27:21;;;;;;;3.85;3.53;;;;;;;-145.68;26.07;71535.47;10563449;28;20209;-75
2023/07/09 12:32:23;;;;;;;8.55;3.65;;;;;;;-145.68;24.06;71087.97;10563528;28;20278;-74
2023/07/09 12:37:25;;;;;;;3.53;3.22;;;;;;;-145.68;22.84;70880.22;10581072;28;20193;-74
2023/07/09 12:42:34;;;;;;;7.78;3.72;;;;;;;-145.68;24.27;71215.81;10563915;28;20226;-74
2023/07/09 12:47:34;;;;;;;4.07;3.30;;;;;;;-145.68;23.41;70890.22;10562292;28;20651;-74
2023/07/09 12:52:34;;;;;;;3.67;3.13;;;;;;;-145.68;23.20;70800.34;10562735;28;20185;-74
2023/07/09 12:57:37;;;;;;;5.60;3.30;;;;;;;-145.68;22.14;70674.50;10580256;28;20635;-74
2023/07/09 13:02:38;;;;;;;3.60;3.17;;;;;;;-145.68;23.24;70890.22;10562634;28;20192;-74
2023/07/09 13:07:39;;;;;;;6.68;3.53;;;;;;;-145.68;22.56;70892.22;10579960;28;20696;-76
2023/07/09 13:12:40;;;;;;;4.07;3.47;;;;;;;-145.68;24.15;71273.75;10579940;28;20197;-76
2023/07/09 13:17:41;;;;;;;5.82;3.40;;;;;;;-145.68;23.17;71026.06;10580199;28;21065;-76
2023/07/09 13:22:43;;;;;;;3.35;3.00;;;;;;;-145.68;23.54;70888.22;10561112;28;20255;-77
2023/07/09 13:27:44;;;;;;;5.03;3.30;;;;;;;-145.68;23.09;70888.22;10544831;28;20259;-74
2023/07/09 13:32:46;;;;;;;5.82;3.33;;;;;;;-145.68;22.88;70850.28;10579401;28;20225;-74
2023/07/09 13:37:46;;;;;;;3.88;3.28;;;;;;;-145.68;21.90;70596.59;10560668;28;20234;-74
2023/07/09 13:42:48;;;;;;;5.85;3.50;;;;;;;-145.68;22.09;70750.41;10578858;28;20729;-74
2023/07/09 13:47:50;;;;;;;8.65;3.60;;;;;;;-145.68;21.85;70578.63;10559646;28;20224;-75
2023/07/09 13:52:50;;;;;;;6.50;3.50;;;;;;;-145.68;22.08;70702.47;10568836;28;20732;-74
2023/07/09 13:57:50;;;;;;;5.97;3.70;;;;;;;-145.68;21.87;70600.59;10528474;28;20186;-75
2023/07/09 14:02:51;;;;;;;8.93;3.50;;;;;;;-145.68;20.64;70386.88;10529053;28;20493;-75
2023/07/09 14:07:51;;;;;;;5.03;3.60;;;;;;;-145.68;21.78;70522.69;10527797;28;20974;-74
2023/07/09 14:12:52;;;;;;;4.63;3.60;;;;;;;-145.68;21.93;70480.75;10528295;28;20201;-75
2023/07/09 14:17:54;;;;;;;4.22;3.22;;;;;;;-145.68;20.97;70362.91;10509817;28;20276;-75
2023/07/09 14:22:55;;;;;;;6.43;3.50;;;;;;;-145.68;21.21;70434.81;10526858;28;20501;-75
2023/07/09 14:27:55;;;;;;;4.87;3.43;;;;;;;-145.68;21.21;70490.75;10527341;28;20222;-75
2023/07/09 14:32:57;;;;;;;4.77;3.70;;;;;;;-145.68;21.88;70562.66;10527291;28;21015;-75
2023/07/09 14:37:59;;;;;;;9.88;3.85;;;;;;;-145.68;21.26;70426.84;10527049;28;20551;-75
2023/07/09 14:43:00;;;;;;;4.60;3.47;;;;;;;-145.68;20.84;70434.81;10527205;28;20612;-75
2023/07/09 14:48:01;;;;;;;6.85;3.55;;;;;;;-145.68;21.78;70486.75;10525913;28;20665;-75
2023/07/09 14:53:01;;;;;;;4.17;3.77;;;;;;;-145.68;21.45;70474.78;10526888;28;20194;-75
2023/07/09 14:58:05;;;;;;;4.97;3.73;;;;;;;-145.68;20.71;70303.00;10526224;28;20926;-75
2023/07/09 15:03:08;;;;;;;5.00;3.60;;;;;;;-145.68;21.51;70366.91;10526228;28;21046;-75
2023/07/09 15:08:13;;;;;;;7.13;4.00;;;;;;;-145.68;21.56;70530.69;10526259;28;20312;-75
2023/07/09 15:13:19;;;;;;;8.95;4.28;;;;;;;-145.68;21.41;70412.84;10525399;28;20557;-75
2023/07/09 15:18:20;;;;;;;5.68;3.85;;;;;;;-145.68;21.77;70516.72;10491481;28;20190;-75
2023/07/09 15:23:22;;;;;;;8.77;4.15;;;;;;;-145.68;21.68;70458.78;10525301;28;20239;-75
2023/07/09 15:28:22;;;;;;;8.27;4.00;;;;;;;-145.68;21.92;70518.72;10526195;28;20226;-75
2023/07/09 15:33:23;;;;;;;6.25;4.10;;;;;;;-145.68;22.26;70650.53;10526008;28;20314;-75
2023/07/09 15:38:29;;;;;;;5.17;4.30;;;;;;;-145.68;23.04;70720.44;10525358;28;20693;-75
2023/07/09 15:43:29;;;;;;;4.95;3.92;;;;;;;-145.68;22.67;70528.69;10525692;28;20688;-74
2023/07/09 15:48:32;;;;;;;5.00;4.50;;;;;;;-145.68;23.03;70778.38;10505915;28;20521;-75
2023/07/09 15:53:33;;;;;;;7.88;4.45;;;;;;;-145.68;22.89;70740.41;10525736;28;20542;-74
2023/07/09 15:58:42;;;;;;;5.90;3.97;;;;;;;-145.68;23.43;70686.47;10525160;28;20194;-74
2023/07/09 16:03:46;;;;;;;6.60;3.95;;;;;;;-145.68;23.27;70766.38;10524348;28;20190;-74
2023/07/09 16:08:46;;;;;;;5.72;4.28;;;;;;;-145.68;23.50;70844.28;10524264;28;20218;-75
2023/07/09 16:13:47;;;;;;;5.83;4.20;;;;;;;-145.68;24.48;71008.06;10525210;28;20193;-74
2023/07/09 16:18:48;;;;;;;6.35;4.20;;;;;;;-145.68;24.65;71068.00;10506036;28;20561;-74
2023/07/09 16:23:48;;;;;;;5.35;4.43;;;;;;;-145.68;24.58;71040.03;10524681;28;20722;-74
2023/07/09 16:28:49;;;;;;;8.38;4.03;;;;;;;-145.68;25.88;71283.75;10524190;28;20217;-74
2023/07/09 16:33:49;;;;;;;6.50;4.60;;;;;;;-145.68;26.23;71315.72;10507909;28;20230;-75
2023/07/09 16:38:50;;;;;;;5.23;4.30;;;;;;;-145.68;26.13;71269.75;10529220;28;20328;-74
2023/07/09 16:43:50;;;;;;;5.97;4.83;;;;;;;-145.68;26.92;71343.69;10528555;28;20420;-74
2023/07/09 16:48:51;;;;;;;10.53;5.07;;;;;;;-145.68;28.05;71437.56;10528898;28;20502;-74
2023/07/09 16:53:51;;;;;;;9.57;4.53;;;;;;;-145.68;26.99;71463.53;10510470;28;20432;-74
2023/07/09 16:58:51;;;;;;;7.22;4.43;;;;;;;-145.68;27.52;71465.53;10534015;28;20197;-74
2023/07/09 17:03:52;;;;;;;5.63;4.20;;;;;;;-145.68;26.91;71397.63;10539752;28;20194;-74
2023/07/09 17:08:52;;;;;;;6.93;4.30;;;;;;;-145.68;27.29;71411.59;10539928;28;20559;-74
2023/07/09 17:13:52;;;;;;;5.37;4.20;;;;;;;-145.68;27.67;71511.50;10539341;28;20482;-73
2023/07/09 17:18:53;;;;;;;6.83;3.83;;;;;;;-145.68;27.53;71511.50;10539661;28;20432;-73
2023/07/09 17:23:54;;;;;;;5.77;4.20;;;;;;;-145.68;27.70;71539.47;10539560;28;20544;-76
2023/07/09 17:28:54;;;;;;;5.95;3.63;;;;;;;-145.68;28.08;71535.47;10538685;28;20504;-76
2023/07/09 17:33:55;;;;;;;6.40;4.47;;;;;;;-145.68;28.39;71571.44;10539092;28;20219;-74
2023/07/09 17:38:55;;;;;;;8.63;4.30;;;;;;;-145.68;28.86;71579.41;10538196;28;20464;-73
2023/07/09 17:43:55;;;;;;;6.80;3.90;;;;;;;-145.68;28.54;71569.44;10520045;28;20940;-74
2023/07/09 17:48:57;;;;;;;4.90;3.90;;;;;;;-145.68;29.44;71619.38;10538153;28;20851;-73
2023/07/09 17:53:57;;;;;;;7.28;4.80;;;;;;;-145.68;32.16;71729.25;10538197;28;20442;-73
2023/07/09 17:58:58;;;;;;;5.77;4.10;;;;;;;-145.68;33.05;71845.13;10537617;28;20569;-73
2023/07/09 18:03:58;;;;;;;9.65;4.18;;;;;;;-145.68;33.84;71911.06;10537507;28;20830;-73
2023/07/09 18:08:58;;;;;;;9.93;4.90;;;;;;;-145.68;35.27;71965.00;10536925;28;20218;-73
2023/07/09 18:14:00;;;;;;;8.47;4.70;;;;;;;-145.68;36.42;72056.94;10537161;28;20444;-73
2023/07/09 18:19:03;;;;;;;9.55;4.32;;;;;;;-145.68;37.43;72152.84;10536796;28;20429;-75
2023/07/09 18:24:04;;;;;;;8.02;4.10;;;;;;;-145.68;38.23;72244.75;10537304;28;20213;-75
2023/07/09 18:29:08;;;;;;;12.90;4.95;;;;;;;-145.68;40.11;72458.56;10535981;28;20221;-75
2023/07/09 18:34:09;;;;;;;8.45;4.38;;;;;;;-145.68;40.50;72468.56;10536263;28;20222;-75
2023/07/09 18:39:09;;;;;;;10.25;4.63;;;;;;;-145.68;40.85;72536.50;10535933;28;20211;-75
2023/07/09 18:44:16;;;;;;;8.18;4.68;;;;;;;-145.68;41.34;72550.47;10535658;28;20232;-75
2023/07/09 18:49:17;;;;;;;9.35;5.28;;;;;;;-145.68;41.62;72536.50;10518148;28;20222;-73
2023/07/09 18:54:18;;;;;;;8.65;5.05;;;;;;;-145.68;41.60;72576.47;10535465;28;20206;-73
2023/07/09 18:59:20;;;;;;;11.43;4.72;;;;;;;-145.68;40.95;72588.44;10517775;28;20189;-73
2023/07/09 19:04:26;;;;;;;7.20;4.80;;;;;;;-145.68;41.93;72616.44;10535410;28;20197;-73
2023/07/09 19:09:26;;;;;;;15.82;10.15;;;;;;;-145.68;42.27;72624.41;10535155;28;20306;-76
2023/07/09 19:14:26;;;;;;;9.60;5.43;;;;;;;-145.68;42.03;72616.44;10535278;28;20723;-75
2023/07/09 19:19:28;;;;;;;6.22;5.03;;;;;;;-145.68;42.03;72644.41;10534297;28;20683;-75
2023/07/09 19:24:30;;;;;;;9.77;5.07;;;;;;;-145.68;41.92;72656.41;10533648;28;20649;-75
2023/07/09 19:29:33;;;;;;;9.70;4.70;;;;;;;-145.68;41.77;72668.38;10534303;28;20289;-75
2023/07/09 19:34:37;;;;;;;13.93;5.05;;;;;;;-145.68;41.95;72700.34;10534357;28;20237;-75
2023/07/09 19:39:39;;;;;;;12.63;5.15;;;;;;;-145.68;42.07;72698.34;10516025;28;20202;-75
2023/07/09 19:44:39;;;;;;;6.80;4.88;;;;;;;-145.68;42.27;72714.34;10533768;28;20191;-75
2023/07/09 19:49:40;;;;;;;9.88;4.70;;;;;;;-145.68;42.50;72740.31;10533880;28;20218;-75
2023/07/09 19:54:48;;;;;;;8.57;4.97;;;;;;;-145.68;42.39;72760.31;10533896;28;20202;-75
2023/07/09 19:59:48;;;;;;;6.43;4.40;;;;;;;-145.68;42.63;72776.28;10533585;28;20193;-75
2023/07/09 20:04:48;;;;;;;9.40;4.80;;;;;;;-145.68;42.88;72796.28;10533823;28;20201;-74
2023/07/09 20:09:49;;;;;;;6.72;4.15;;;;;;;-145.68;42.81;72810.28;10515573;28;20214;-75
2023/07/09 20:14:49;;;;;;;9.48;4.85;;;;;;;-145.68;42.89;72820.25;10515513;28;20194;-74
2023/07/09 20:19:50;;;;;;;7.18;5.00;;;;;;;-145.68;42.89;72828.25;10533614;28;20197;-75
2023/07/09 20:24:50;;;;;;;9.85;4.65;;;;;;;-145.68;42.96;72844.25;10533407;28;20269;-75
2023/07/09 20:29:50;;;;;;;11.27;4.72;;;;;;;-145.68;43.44;72864.22;10533154;28;20232;-74
2023/07/09 20:34:53;;;;;;;6.80;4.80;;;;;;;-145.68;43.68;72888.22;10538381;28;20226;-74
2023/07/09 20:39:54;;;;;;;7.75;4.65;;;;;;;-145.68;44.01;72902.19;10522884;28;20214;-74
2023/07/09 20:44:55;;;;;;;9.00;4.93;;;;;;;-145.68;44.22;72924.19;10540671;28;20191;-74
2023/07/09 20:49:56;;;;;;;5.65;4.45;;;;;;;-145.68;44.32;72930.19;10522418;28;20241;-75
2023/07/09 20:54:56;;;;;;;7.85;4.95;;;;;;;-145.68;44.65;72942.16;10540636;28;20610;-74
2023/07/09 20:59:56;;;;;;;7.70;4.80;;;;;;;-145.68;45.14;72970.16;10540218;28;20195;-74
2023/07/09 21:04:57;;;;;;;8.88;5.20;;;;;;;-145.68;45.08;72972.16;10540023;28;20186;-74
2023/07/09 21:09:57;;;;;;;10.68;5.15;;;;;;;-145.68;45.45;72996.13;10539620;28;20367;-75
2023/07/09 21:14:57;;;;;;;7.97;5.20;;;;;;;-145.68;45.70;73006.13;10540228;28;20186;-75
2023/07/09 21:19:58;;;;;;;8.93;5.10;;;;;;;-145.68;46.18;73024.13;10538943;28;20368;-75
2023/07/09 21:25:02;;;;;;;8.40;5.03;;;;;;;-145.68;46.29;73038.09;10521506;28;20194;-74
2023/07/09 21:30:02;;;;;;;9.95;5.05;;;;;;;-145.68;46.04;73040.09;10539070;28;20222;-74
2023/07/09 21:35:15;;;;;;;8.02;4.72;;;;;;;-145.68;46.06;73032.09;10537191;28;20639;-75
2023/07/09 21:40:27;;;;;;;10.05;5.35;;;;;;;-145.68;45.85;73032.09;10538415;28;20214;-74
2023/07/09 21:45:33;;;;;;;6.38;5.13;;;;;;;-145.68;45.76;73028.09;10537125;28;20187;-74
2023/07/09 21:50:33;;;;;;;6.03;5.10;;;;;;;-145.68;45.84;73044.09;10538294;28;20210;-74
2023/07/09 21:55:34;;;;;;;7.20;4.97;;;;;;;-145.68;45.91;73048.09;10537750;28;20591;-75
2023/07/09 22:00:36;;;;;;;8.15;5.18;;;;;;;-145.68;46.40;73064.09;10537742;28;20660;-75
2023/07/09 22:05:37;;;;;;;6.45;4.70;;;;;;;-145.68;46.19;73064.09;10537362;28;20749;-74
2023/07/09 22:10:37;;;;;;;7.00;4.95;;;;;;;-145.68;46.33;73080.06;10537388;28;20222;-74
2023/07/09 22:15:39;;;;;;;6.18;4.72;;;;;;;-145.68;46.02;73068.06;10519364;28;20187;-74
2023/07/09 22:20:40;;;;;;;6.60;5.20;;;;;;;-145.68;45.95;73066.09;10536616;28;20175;-75
2023/07/09 22:25:40;;;;;;;10.55;5.10;;;;;;;-145.68;46.46;73080.06;10537381;28;20187;-74
2023/07/09 22:30:40;;;;;;;9.60;5.38;;;;;;;-145.68;46.33;73072.06;10536197;28;20796;-74
2023/07/09 22:35:41;;;;;;;9.13;5.60;;;;;;;-145.68;46.15;73070.06;10535821;28;20698;-74
2023/07/09 22:40:41;;;;;;;8.30;5.10;;;;;;;-145.68;45.76;73056.09;10536068;28;20202;-74
2023/07/09 22:45:43;;;;;;;8.07;5.13;;;;;;;-145.68;45.41;73042.09;10535830;28;20193;-75
2023/07/09 22:50:44;;;;;;;5.47;4.93;;;;;;;-145.68;45.16;73044.09;10535845;28;20579;-75
2023/07/09 22:55:46;;;;;;;7.10;4.93;;;;;;;-145.68;45.68;73062.09;10535429;28;20178;-74